sensor_id;sensor_type;location;lat;lon;timestamp;temperature;humidity
12166;DHT22;6146;48.128;11.476;2023-06-10T00:01:54;17.20;99.90
12166;DHT22;6146;48.128;11.476;2023-06-10T00:04:25;17.30;99.90
12166;DHT22;6146;48.128;11.476;2023-06-10T00:06:51;17.20;99.90
12166;DHT22;6146;48.128;11.476;2023-06-10T00:09:17;17.20;99.90
12166;DHT22;6146;48.128;11.476;2023-06-10T00:11:44;17.10;99.90
12166;DHT22;6146;48.128;11.476;2023-06-10T00:14:10;17.10;99.90
12166;DHT22;6146;48.128;11.476;2023-06-10T00:16:36;17.00;99.90
12166;DHT22;6146;48.128;11.476;2023-06-10T00:19:02;17.00;99.90
12166;DHT22;6146;48.128;11.476;2023-06-10T00:21:33;17.10;99.90
12166;DHT22;6146;48.128;11.476;2023-06-10T00:24:08;17.00;99.90
12166;DHT22;6146;48.128;11.476;2023-06-10T00:26:39;17.00;99.90
12166;DHT22;6146;48.128;11.476;2023-06-10T00:29:06;16.90;99.90
12166;DHT22;6146;48.128;11.476;2023-06-10T00:31:33;16.90;99.90
12166;DHT22;6146;48.128;11.476;2023-06-10T00:33:59;16.80;99.90
12166;DHT22;6146;48.128;11.476;2023-06-10T00:36:24;16.80;99.90
12166;DHT22;6146;48.128;11.476;2023-06-10T00:38:50;16.70;99.90
12166;DHT22;6146;48.128;11.476;2023-06-10T00:41:16;16.70;99.90
12166;DHT22;6146;48.128;11.476;2023-06-10T00:43:41;16.70;99.90
12166;DHT22;6146;48.128;11.476;2023-06-10T00:46:07;16.60;99.90
12166;DHT22;6146;48.128;11.476;2023-06-10T00:48:33;16.60;99.90
12166;DHT22;6146;48.128;11.476;2023-06-10T00:50:59;16.50;99.90
12166;DHT22;6146;48.128;11.476;2023-06-10T00:53:26;16.50;99.90
12166;DHT22;6146;48.128;11.476;2023-06-10T00:55:53;16.40;99.90
12166;DHT22;6146;48.128;11.476;2023-06-10T00:58:18;16.30;99.90
12166;DHT22;6146;48.128;11.476;2023-06-10T01:00:44;16.30;99.90
12166;DHT22;6146;48.128;11.476;2023-06-10T01:03:10;16.20;99.90
12166;DHT22;6146;48.128;11.476;2023-06-10T01:05:38;16.20;99.90
12166;DHT22;6146;48.128;11.476;2023-06-10T01:10:57;16.10;99.90
12166;DHT22;6146;48.128;11.476;2023-06-10T01:13:25;16.10;99.90
12166;DHT22;6146;48.128;11.476;2023-06-10T01:15:54;16.00;99.90
12166;DHT22;6146;48.128;11.476;2023-06-10T01:18:20;16.00;99.90
12166;DHT22;6146;48.128;11.476;2023-06-10T01:20:47;16.10;99.90
12166;DHT22;6146;48.128;11.476;2023-06-10T01:23:14;16.00;99.90
12166;DHT22;6146;48.128;11.476;2023-06-10T01:26:01;16.00;99.90
12166;DHT22;6146;48.128;11.476;2023-06-10T01:28:46;15.90;99.90
12166;DHT22;6146;48.128;11.476;2023-06-10T01:31:41;15.90;99.90
12166;DHT22;6146;48.128;11.476;2023-06-10T01:34:10;15.80;99.90
12166;DHT22;6146;48.128;11.476;2023-06-10T01:36:38;15.80;99.90
12166;DHT22;6146;48.128;11.476;2023-06-10T01:39:08;15.80;99.90
12166;DHT22;6146;48.128;11.476;2023-06-10T01:41:35;15.80;99.90
12166;DHT22;6146;48.128;11.476;2023-06-10T01:44:01;15.80;99.90
12166;DHT22;6146;48.128;11.476;2023-06-10T01:46:27;15.70;99.90
12166;DHT22;6146;48.128;11.476;2023-06-10T01:48:53;15.70;99.90
12166;DHT22;6146;48.128;11.476;2023-06-10T01:51:18;15.70;99.90
12166;DHT22;6146;48.128;11.476;2023-06-10T01:53:44;15.60;99.90
12166;DHT22;6146;48.128;11.476;2023-06-10T01:56:10;15.60;99.90
12166;DHT22;6146;48.128;11.476;2023-06-10T01:58:35;15.60;99.90
12166;DHT22;6146;48.128;11.476;2023-06-10T02:01:01;15.60;99.90
12166;DHT22;6146;48.128;11.476;2023-06-10T02:03:26;15.60;99.90
12166;DHT22;6146;48.128;11.476;2023-06-10T02:05:52;15.50;99.90
12166;DHT22;6146;48.128;11.476;2023-06-10T02:08:18;15.50;99.90
12166;DHT22;6146;48.128;11.476;2023-06-10T02:10:43;15.40;99.90
12166;DHT22;6146;48.128;11.476;2023-06-10T02:13:09;15.40;99.90
12166;DHT22;6146;48.128;11.476;2023-06-10T02:15:34;15.30;99.90
12166;DHT22;6146;48.128;11.476;2023-06-10T02:18:00;15.20;99.90
12166;DHT22;6146;48.128;11.476;2023-06-10T02:20:26;15.20;99.90
12166;DHT22;6146;48.128;11.476;2023-06-10T02:22:53;15.20;99.90
12166;DHT22;6146;48.128;11.476;2023-06-10T02:25:18;15.10;99.90
12166;DHT22;6146;48.128;11.476;2023-06-10T02:27:44;15.00;99.90
12166;DHT22;6146;48.128;11.476;2023-06-10T02:30:10;15.00;99.90
12166;DHT22;6146;48.128;11.476;2023-06-10T02:32:36;15.00;99.90
12166;DHT22;6146;48.128;11.476;2023-06-10T02:35:01;14.90;99.90
12166;DHT22;6146;48.128;11.476;2023-06-10T02:37:27;14.90;99.90
12166;DHT22;6146;48.128;11.476;2023-06-10T02:39:53;14.90;99.90
12166;DHT22;6146;48.128;11.476;2023-06-10T02:42:18;14.90;99.90
12166;DHT22;6146;48.128;11.476;2023-06-10T02:44:44;14.90;99.90
12166;DHT22;6146;48.128;11.476;2023-06-10T02:47:10;14.80;99.90
12166;DHT22;6146;48.128;11.476;2023-06-10T02:49:36;14.80;99.90
12166;DHT22;6146;48.128;11.476;2023-06-10T02:52:02;14.70;99.90
12166;DHT22;6146;48.128;11.476;2023-06-10T02:54:27;14.70;99.90
12166;DHT22;6146;48.128;11.476;2023-06-10T02:56:53;14.70;99.90
12166;DHT22;6146;48.128;11.476;2023-06-10T02:59:21;14.60;99.90
12166;DHT22;6146;48.128;11.476;2023-06-10T03:01:47;14.60;99.90
12166;DHT22;6146;48.128;11.476;2023-06-10T03:04:12;14.50;99.90
12166;DHT22;6146;48.128;11.476;2023-06-10T03:06:41;14.50;99.90
12166;DHT22;6146;48.128;11.476;2023-06-10T03:09:06;14.50;99.90
12166;DHT22;6146;48.128;11.476;2023-06-10T03:11:35;14.50;99.90
12166;DHT22;6146;48.128;11.476;2023-06-10T03:14:01;14.40;99.90
12166;DHT22;6146;48.128;11.476;2023-06-10T03:16:26;14.40;99.90
12166;DHT22;6146;48.128;11.476;2023-06-10T03:18:52;14.30;99.90
12166;DHT22;6146;48.128;11.476;2023-06-10T03:21:18;14.40;99.90
12166;DHT22;6146;48.128;11.476;2023-06-10T03:23:44;14.30;99.90
12166;DHT22;6146;48.128;11.476;2023-06-10T03:26:11;14.30;99.90
12166;DHT22;6146;48.128;11.476;2023-06-10T03:28:37;14.20;99.90
12166;DHT22;6146;48.128;11.476;2023-06-10T03:31:03;14.20;99.90
12166;DHT22;6146;48.128;11.476;2023-06-10T03:33:28;14.20;99.90
12166;DHT22;6146;48.128;11.476;2023-06-10T03:35:55;14.20;99.90
12166;DHT22;6146;48.128;11.476;2023-06-10T03:38:20;14.20;99.90
12166;DHT22;6146;48.128;11.476;2023-06-10T03:40:46;14.20;99.90
12166;DHT22;6146;48.128;11.476;2023-06-10T03:43:12;14.10;99.90
12166;DHT22;6146;48.128;11.476;2023-06-10T03:45:37;14.20;99.90
12166;DHT22;6146;48.128;11.476;2023-06-10T03:48:04;14.20;99.90
12166;DHT22;6146;48.128;11.476;2023-06-10T03:50:30;14.30;99.90
12166;DHT22;6146;48.128;11.476;2023-06-10T03:52:55;14.30;99.90
12166;DHT22;6146;48.128;11.476;2023-06-10T03:55:21;14.30;99.90
12166;DHT22;6146;48.128;11.476;2023-06-10T03:57:47;14.40;99.90
12166;DHT22;6146;48.128;11.476;2023-06-10T04:00:14;14.40;99.90
12166;DHT22;6146;48.128;11.476;2023-06-10T04:02:40;14.50;99.90
12166;DHT22;6146;48.128;11.476;2023-06-10T04:05:14;14.50;99.90
12166;DHT22;6146;48.128;11.476;2023-06-10T04:07:40;14.60;99.90
12166;DHT22;6146;48.128;11.476;2023-06-10T04:10:08;14.60;99.90
12166;DHT22;6146;48.128;11.476;2023-06-10T04:12:34;14.70;99.90
12166;DHT22;6146;48.128;11.476;2023-06-10T04:15:00;14.80;99.90
12166;DHT22;6146;48.128;11.476;2023-06-10T04:17:26;14.80;99.90
12166;DHT22;6146;48.128;11.476;2023-06-10T04:19:52;14.90;99.90
12166;DHT22;6146;48.128;11.476;2023-06-10T04:22:18;14.90;99.90
12166;DHT22;6146;48.128;11.476;2023-06-10T04:24:44;15.10;99.90
12166;DHT22;6146;48.128;11.476;2023-06-10T04:27:09;15.10;99.90
12166;DHT22;6146;48.128;11.476;2023-06-10T04:29:35;15.20;99.90
12166;DHT22;6146;48.128;11.476;2023-06-10T04:32:01;15.50;99.90
12166;DHT22;6146;48.128;11.476;2023-06-10T04:34:27;15.90;99.90
12166;DHT22;6146;48.128;11.476;2023-06-10T04:36:53;16.30;99.90
12166;DHT22;6146;48.128;11.476;2023-06-10T04:39:18;17.10;99.90
12166;DHT22;6146;48.128;11.476;2023-06-10T04:41:45;18.40;99.90
12166;DHT22;6146;48.128;11.476;2023-06-10T04:44:11;19.90;99.90
12166;DHT22;6146;48.128;11.476;2023-06-10T04:46:37;21.30;99.90
12166;DHT22;6146;48.128;11.476;2023-06-10T04:49:03;22.40;99.90
12166;DHT22;6146;48.128;11.476;2023-06-10T04:51:30;23.40;99.90
12166;DHT22;6146;48.128;11.476;2023-06-10T04:53:57;23.90;99.90
12166;DHT22;6146;48.128;11.476;2023-06-10T04:56:23;24.70;99.90
12166;DHT22;6146;48.128;11.476;2023-06-10T04:58:49;25.40;98.80
12166;DHT22;6146;48.128;11.476;2023-06-10T05:01:15;25.80;96.80
12166;DHT22;6146;48.128;11.476;2023-06-10T05:03:40;26.20;94.80
12166;DHT22;6146;48.128;11.476;2023-06-10T05:06:06;26.40;93.80
12166;DHT22;6146;48.128;11.476;2023-06-10T05:08:31;26.70;92.70
12166;DHT22;6146;48.128;11.476;2023-06-10T05:10:57;27.00;91.30
12166;DHT22;6146;48.128;11.476;2023-06-10T05:13:23;26.80;91.60
12166;DHT22;6146;48.128;11.476;2023-06-10T05:15:49;26.70;91.50
12166;DHT22;6146;48.128;11.476;2023-06-10T05:18:14;26.70;91.20
12166;DHT22;6146;48.128;11.476;2023-06-10T05:20:40;26.60;91.40
12166;DHT22;6146;48.128;11.476;2023-06-10T05:23:05;26.50;91.20
12166;DHT22;6146;48.128;11.476;2023-06-10T05:25:32;26.30;91.70
12166;DHT22;6146;48.128;11.476;2023-06-10T05:27:59;26.50;90.90
12166;DHT22;6146;48.128;11.476;2023-06-10T05:30:24;26.10;91.70
12166;DHT22;6146;48.128;11.476;2023-06-10T05:32:51;26.60;91.10
12166;DHT22;6146;48.128;11.476;2023-06-10T05:35:18;27.20;89.30
12166;DHT22;6146;48.128;11.476;2023-06-10T05:37:43;27.50;88.50
12166;DHT22;6146;48.128;11.476;2023-06-10T05:40:09;27.80;86.80
12166;DHT22;6146;48.128;11.476;2023-06-10T05:42:35;28.50;84.70
12166;DHT22;6146;48.128;11.476;2023-06-10T05:45:01;28.90;82.10
12166;DHT22;6146;48.128;11.476;2023-06-10T05:47:27;29.20;81.00
12166;DHT22;6146;48.128;11.476;2023-06-10T05:49:53;30.00;75.70
12166;DHT22;6146;48.128;11.476;2023-06-10T05:52:18;30.20;74.40
12166;DHT22;6146;48.128;11.476;2023-06-10T05:54:44;30.40;72.80
12166;DHT22;6146;48.128;11.476;2023-06-10T05:57:10;30.80;72.10
12166;DHT22;6146;48.128;11.476;2023-06-10T05:59:36;31.40;70.20
12166;DHT22;6146;48.128;11.476;2023-06-10T06:02:01;32.30;66.90
12166;DHT22;6146;48.128;11.476;2023-06-10T06:04:27;32.30;64.50
12166;DHT22;6146;48.128;11.476;2023-06-10T06:06:52;32.10;64.10
12166;DHT22;6146;48.128;11.476;2023-06-10T06:09:18;32.60;61.60
12166;DHT22;6146;48.128;11.476;2023-06-10T06:11:44;32.00;63.00
12166;DHT22;6146;48.128;11.476;2023-06-10T06:14:09;32.40;61.00
12166;DHT22;6146;48.128;11.476;2023-06-10T06:16:35;32.00;62.00
12166;DHT22;6146;48.128;11.476;2023-06-10T06:19:00;31.30;63.60
12166;DHT22;6146;48.128;11.476;2023-06-10T06:21:26;31.40;64.70
12166;DHT22;6146;48.128;11.476;2023-06-10T06:23:52;32.20;62.70
12166;DHT22;6146;48.128;11.476;2023-06-10T06:26:17;32.80;60.20
12166;DHT22;6146;48.128;11.476;2023-06-10T06:28:43;33.10;58.50
12166;DHT22;6146;48.128;11.476;2023-06-10T06:31:08;32.70;59.20
12166;DHT22;6146;48.128;11.476;2023-06-10T06:33:34;32.70;59.40
12166;DHT22;6146;48.128;11.476;2023-06-10T06:35:59;33.60;57.50
12166;DHT22;6146;48.128;11.476;2023-06-10T06:38:28;33.80;56.30
12166;DHT22;6146;48.128;11.476;2023-06-10T06:40:53;33.50;56.50
12166;DHT22;6146;48.128;11.476;2023-06-10T06:43:19;33.50;56.60
12166;DHT22;6146;48.128;11.476;2023-06-10T06:45:45;33.40;57.20
12166;DHT22;6146;48.128;11.476;2023-06-10T06:48:11;32.90;57.70
12166;DHT22;6146;48.128;11.476;2023-06-10T06:50:37;32.40;58.30
12166;DHT22;6146;48.128;11.476;2023-06-10T06:53:03;31.30;61.00
12166;DHT22;6146;48.128;11.476;2023-06-10T06:55:29;30.40;63.80
12166;DHT22;6146;48.128;11.476;2023-06-10T06:57:55;30.30;64.30
12166;DHT22;6146;48.128;11.476;2023-06-10T07:00:21;31.10;61.50
12166;DHT22;6146;48.128;11.476;2023-06-10T07:02:47;31.60;60.80
12166;DHT22;6146;48.128;11.476;2023-06-10T07:05:13;32.10;60.80
12166;DHT22;6146;48.128;11.476;2023-06-10T07:07:38;32.80;58.80
12166;DHT22;6146;48.128;11.476;2023-06-10T07:10:04;33.40;57.70
12166;DHT22;6146;48.128;11.476;2023-06-10T07:12:30;34.70;55.40
12166;DHT22;6146;48.128;11.476;2023-06-10T07:14:56;35.90;52.10
12166;DHT22;6146;48.128;11.476;2023-06-10T07:17:21;35.90;51.50
12166;DHT22;6146;48.128;11.476;2023-06-10T07:19:47;35.40;52.40
12166;DHT22;6146;48.128;11.476;2023-06-10T07:22:12;35.70;51.00
12166;DHT22;6146;48.128;11.476;2023-06-10T07:24:38;35.50;50.30
12166;DHT22;6146;48.128;11.476;2023-06-10T07:27:04;35.00;51.80
12166;DHT22;6146;48.128;11.476;2023-06-10T07:29:31;35.00;51.40
12166;DHT22;6146;48.128;11.476;2023-06-10T07:31:56;33.40;52.90
12166;DHT22;6146;48.128;11.476;2023-06-10T07:34:22;31.50;57.30
12166;DHT22;6146;48.128;11.476;2023-06-10T07:36:47;31.50;58.60
12166;DHT22;6146;48.128;11.476;2023-06-10T07:39:13;32.40;55.70
12166;DHT22;6146;48.128;11.476;2023-06-10T07:41:38;32.70;55.50
12166;DHT22;6146;48.128;11.476;2023-06-10T07:44:04;33.00;55.80
12166;DHT22;6146;48.128;11.476;2023-06-10T07:46:29;34.20;53.00
12166;DHT22;6146;48.128;11.476;2023-06-10T07:48:55;35.60;50.30
12166;DHT22;6146;48.128;11.476;2023-06-10T07:51:21;36.70;49.00
12166;DHT22;6146;48.128;11.476;2023-06-10T07:53:47;37.70;46.20
12166;DHT22;6146;48.128;11.476;2023-06-10T07:56:13;37.70;45.30
12166;DHT22;6146;48.128;11.476;2023-06-10T07:58:38;38.10;45.40
12166;DHT22;6146;48.128;11.476;2023-06-10T08:01:04;38.30;44.50
12166;DHT22;6146;48.128;11.476;2023-06-10T08:03:29;38.40;44.10
12166;DHT22;6146;48.128;11.476;2023-06-10T08:05:55;37.00;44.20
12166;DHT22;6146;48.128;11.476;2023-06-10T08:08:20;35.90;46.00
12166;DHT22;6146;48.128;11.476;2023-06-10T08:10:46;35.40;47.40
12166;DHT22;6146;48.128;11.476;2023-06-10T08:13:12;35.20;47.50
12166;DHT22;6146;48.128;11.476;2023-06-10T08:15:37;34.90;48.00
12166;DHT22;6146;48.128;11.476;2023-06-10T08:18:03;35.40;47.30
12166;DHT22;6146;48.128;11.476;2023-06-10T08:20:29;35.70;45.20
12166;DHT22;6146;48.128;11.476;2023-06-10T08:22:55;35.60;46.40
12166;DHT22;6146;48.128;11.476;2023-06-10T08:25:20;35.00;45.40
12166;DHT22;6146;48.128;11.476;2023-06-10T08:27:47;34.90;46.60
12166;DHT22;6146;48.128;11.476;2023-06-10T08:30:13;34.50;46.70
12166;DHT22;6146;48.128;11.476;2023-06-10T08:32:39;33.80;46.10
12166;DHT22;6146;48.128;11.476;2023-06-10T08:35:05;32.50;49.40
12166;DHT22;6146;48.128;11.476;2023-06-10T08:37:30;33.00;49.40
12166;DHT22;6146;48.128;11.476;2023-06-10T08:39:56;34.00;48.00
12166;DHT22;6146;48.128;11.476;2023-06-10T08:42:28;34.10;48.10
12166;DHT22;6146;48.128;11.476;2023-06-10T08:44:55;34.10;48.10
12166;DHT22;6146;48.128;11.476;2023-06-10T08:47:23;34.60;47.20
12166;DHT22;6146;48.128;11.476;2023-06-10T08:49:49;34.50;45.80
12166;DHT22;6146;48.128;11.476;2023-06-10T08:52:16;33.10;49.10
12166;DHT22;6146;48.128;11.476;2023-06-10T08:54:48;33.00;48.70
12166;DHT22;6146;48.128;11.476;2023-06-10T08:57:15;32.50;51.90
12166;DHT22;6146;48.128;11.476;2023-06-10T08:59:42;34.10;48.50
12166;DHT22;6146;48.128;11.476;2023-06-10T09:02:08;35.30;45.90
12166;DHT22;6146;48.128;11.476;2023-06-10T09:04:35;35.20;46.60
12166;DHT22;6146;48.128;11.476;2023-06-10T09:07:02;34.80;47.80
12166;DHT22;6146;48.128;11.476;2023-06-10T09:09:28;34.10;48.80
12166;DHT22;6146;48.128;11.476;2023-06-10T09:11:56;34.60;47.90
12166;DHT22;6146;48.128;11.476;2023-06-10T09:14:21;33.70;49.40
12166;DHT22;6146;48.128;11.476;2023-06-10T09:16:47;33.70;50.40
12166;DHT22;6146;48.128;11.476;2023-06-10T09:19:15;34.50;48.60
12166;DHT22;6146;48.128;11.476;2023-06-10T09:21:41;33.20;51.10
12166;DHT22;6146;48.128;11.476;2023-06-10T09:24:07;33.80;50.10
12166;DHT22;6146;48.128;11.476;2023-06-10T09:26:32;34.10;49.00
12166;DHT22;6146;48.128;11.476;2023-06-10T09:29:04;34.20;49.40
12166;DHT22;6146;48.128;11.476;2023-06-10T09:31:30;35.40;46.80
12166;DHT22;6146;48.128;11.476;2023-06-10T09:34:09;36.10;46.20
12166;DHT22;6146;48.128;11.476;2023-06-10T09:36:35;36.50;45.20
12166;DHT22;6146;48.128;11.476;2023-06-10T09:39:02;35.50;45.60
12166;DHT22;6146;48.128;11.476;2023-06-10T09:41:35;35.00;46.90
12166;DHT22;6146;48.128;11.476;2023-06-10T09:44:01;33.60;49.30
12166;DHT22;6146;48.128;11.476;2023-06-10T09:46:31;33.80;47.80
12166;DHT22;6146;48.128;11.476;2023-06-10T09:48:58;33.70;49.30
12166;DHT22;6146;48.128;11.476;2023-06-10T09:51:23;33.60;48.90
12166;DHT22;6146;48.128;11.476;2023-06-10T09:53:51;34.70;48.30
12166;DHT22;6146;48.128;11.476;2023-06-10T09:56:17;36.20;45.40
12166;DHT22;6146;48.128;11.476;2023-06-10T09:58:45;34.40;47.10
12166;DHT22;6146;48.128;11.476;2023-06-10T10:01:13;34.20;47.50
12166;DHT22;6146;48.128;11.476;2023-06-10T10:03:49;33.40;48.70
12166;DHT22;6146;48.128;11.476;2023-06-10T10:06:17;31.70;52.10
12166;DHT22;6146;48.128;11.476;2023-06-10T10:08:43;30.80;53.40
12166;DHT22;6146;48.128;11.476;2023-06-10T10:11:10;31.00;53.90
12166;DHT22;6146;48.128;11.476;2023-06-10T10:13:37;31.10;52.40
12166;DHT22;6146;48.128;11.476;2023-06-10T10:16:09;30.50;53.70
12166;DHT22;6146;48.128;11.476;2023-06-10T10:18:43;29.40;55.50
12166;DHT22;6146;48.128;11.476;2023-06-10T10:21:15;28.50;57.50
12166;DHT22;6146;48.128;11.476;2023-06-10T10:26:17;29.70;55.40
12166;DHT22;6146;48.128;11.476;2023-06-10T10:29:45;29.60;55.10
12166;DHT22;6146;48.128;11.476;2023-06-10T10:31:51;29.20;55.90
12166;DHT22;6146;48.128;11.476;2023-06-10T10:34:27;28.40;57.00
12166;DHT22;6146;48.128;11.476;2023-06-10T10:36:55;28.10;57.70
12166;DHT22;6146;48.128;11.476;2023-06-10T10:39:21;28.50;58.30
12166;DHT22;6146;48.128;11.476;2023-06-10T10:41:47;28.70;58.50
12166;DHT22;6146;48.128;11.476;2023-06-10T10:44:14;28.70;58.40
12166;DHT22;6146;48.128;11.476;2023-06-10T10:47:02;29.00;56.30
12166;DHT22;6146;48.128;11.476;2023-06-10T10:49:30;30.00;54.50
12166;DHT22;6146;48.128;11.476;2023-06-10T10:51:59;30.70;53.00
12166;DHT22;6146;48.128;11.476;2023-06-10T10:54:36;32.50;51.00
12166;DHT22;6146;48.128;11.476;2023-06-10T11:02:33;33.30;47.40
12166;DHT22;6146;48.128;11.476;2023-06-10T11:04:58;32.60;47.50
12166;DHT22;6146;48.128;11.476;2023-06-10T11:07:25;32.40;49.00
12166;DHT22;6146;48.128;11.476;2023-06-10T11:10:10;33.40;47.90
12166;DHT22;6146;48.128;11.476;2023-06-10T11:12:50;34.40;45.40
12166;DHT22;6146;48.128;11.476;2023-06-10T11:15:23;35.20;45.20
12166;DHT22;6146;48.128;11.476;2023-06-10T11:18:12;35.80;44.70
12166;DHT22;6146;48.128;11.476;2023-06-10T11:23:42;36.10;42.10
12166;DHT22;6146;48.128;11.476;2023-06-10T11:26:29;35.70;46.00
12166;DHT22;6146;48.128;11.476;2023-06-10T11:31:29;33.60;48.30
12166;DHT22;6146;48.128;11.476;2023-06-10T11:33:57;32.60;49.80
12166;DHT22;6146;48.128;11.476;2023-06-10T11:36:24;32.70;50.30
12166;DHT22;6146;48.128;11.476;2023-06-10T11:38:57;33.10;48.60
12166;DHT22;6146;48.128;11.476;2023-06-10T11:41:26;33.20;48.60
12166;DHT22;6146;48.128;11.476;2023-06-10T11:43:56;33.00;49.20
12166;DHT22;6146;48.128;11.476;2023-06-10T11:46:22;32.60;49.80
12166;DHT22;6146;48.128;11.476;2023-06-10T11:48:52;32.40;49.10
12166;DHT22;6146;48.128;11.476;2023-06-10T11:51:18;32.30;50.10
12166;DHT22;6146;48.128;11.476;2023-06-10T11:53:45;31.80;50.70
12166;DHT22;6146;48.128;11.476;2023-06-10T11:56:11;31.00;52.60
12166;DHT22;6146;48.128;11.476;2023-06-10T11:58:36;31.10;53.00
12166;DHT22;6146;48.128;11.476;2023-06-10T12:01:02;30.50;53.80
12166;DHT22;6146;48.128;11.476;2023-06-10T12:03:36;30.20;54.40
12166;DHT22;6146;48.128;11.476;2023-06-10T12:06:04;29.90;52.50
12166;DHT22;6146;48.128;11.476;2023-06-10T12:08:30;29.40;55.80
12166;DHT22;6146;48.128;11.476;2023-06-10T12:10:57;29.50;55.90
12166;DHT22;6146;48.128;11.476;2023-06-10T12:13:23;29.80;55.00
12166;DHT22;6146;48.128;11.476;2023-06-10T12:15:49;29.90;54.50
12166;DHT22;6146;48.128;11.476;2023-06-10T12:18:24;30.00;53.60
12166;DHT22;6146;48.128;11.476;2023-06-10T12:20:50;30.00;53.70
12166;DHT22;6146;48.128;11.476;2023-06-10T12:23:17;30.20;53.30
12166;DHT22;6146;48.128;11.476;2023-06-10T12:25:54;30.50;51.90
12166;DHT22;6146;48.128;11.476;2023-06-10T12:28:24;30.70;52.10
12166;DHT22;6146;48.128;11.476;2023-06-10T12:30:50;30.60;52.70
12166;DHT22;6146;48.128;11.476;2023-06-10T12:33:20;30.60;51.80
12166;DHT22;6146;48.128;11.476;2023-06-10T12:35:49;30.70;52.10
12166;DHT22;6146;48.128;11.476;2023-06-10T12:38:21;30.80;51.60
12166;DHT22;6146;48.128;11.476;2023-06-10T12:40:47;31.00;51.50
12166;DHT22;6146;48.128;11.476;2023-06-10T12:43:13;30.90;51.30
12166;DHT22;6146;48.128;11.476;2023-06-10T12:45:44;31.00;51.20
12166;DHT22;6146;48.128;11.476;2023-06-10T12:48:10;31.00;50.40
12166;DHT22;6146;48.128;11.476;2023-06-10T12:50:41;30.00;52.00
12166;DHT22;6146;48.128;11.476;2023-06-10T12:53:07;29.80;53.20
12166;DHT22;6146;48.128;11.476;2023-06-10T12:55:33;29.90;53.00
12166;DHT22;6146;48.128;11.476;2023-06-10T12:57:59;30.00;53.30
12166;DHT22;6146;48.128;11.476;2023-06-10T13:00:25;29.60;53.00
12166;DHT22;6146;48.128;11.476;2023-06-10T13:02:53;28.80;54.10
12166;DHT22;6146;48.128;11.476;2023-06-10T13:05:19;27.60;56.50
12166;DHT22;6146;48.128;11.476;2023-06-10T13:07:46;26.90;58.00
12166;DHT22;6146;48.128;11.476;2023-06-10T13:10:13;26.90;59.20
12166;DHT22;6146;48.128;11.476;2023-06-10T13:12:39;26.80;60.20
12166;DHT22;6146;48.128;11.476;2023-06-10T13:15:05;27.10;60.10
12166;DHT22;6146;48.128;11.476;2023-06-10T13:17:31;27.50;60.20
12166;DHT22;6146;48.128;11.476;2023-06-10T13:19:56;27.80;59.20
12166;DHT22;6146;48.128;11.476;2023-06-10T13:22:22;27.80;59.50
12166;DHT22;6146;48.128;11.476;2023-06-10T13:24:49;27.40;62.00
12166;DHT22;6146;48.128;11.476;2023-06-10T13:27:15;27.20;63.40
12166;DHT22;6146;48.128;11.476;2023-06-10T13:29:40;26.80;65.10
12166;DHT22;6146;48.128;11.476;2023-06-10T13:32:06;25.90;67.00
12166;DHT22;6146;48.128;11.476;2023-06-10T13:34:32;25.70;68.20
12166;DHT22;6146;48.128;11.476;2023-06-10T13:36:58;25.90;69.60
12166;DHT22;6146;48.128;11.476;2023-06-10T13:39:23;26.00;68.00
12166;DHT22;6146;48.128;11.476;2023-06-10T13:41:49;26.20;67.30
12166;DHT22;6146;48.128;11.476;2023-06-10T13:44:15;26.10;67.90
12166;DHT22;6146;48.128;11.476;2023-06-10T13:46:40;26.00;68.50
12166;DHT22;6146;48.128;11.476;2023-06-10T13:49:06;26.10;68.30
12166;DHT22;6146;48.128;11.476;2023-06-10T13:51:31;26.10;68.70
12166;DHT22;6146;48.128;11.476;2023-06-10T13:53:57;26.40;68.00
12166;DHT22;6146;48.128;11.476;2023-06-10T13:56:22;26.70;66.50
12166;DHT22;6146;48.128;11.476;2023-06-10T13:58:48;26.70;66.40
12166;DHT22;6146;48.128;11.476;2023-06-10T14:01:14;26.40;66.60
12166;DHT22;6146;48.128;11.476;2023-06-10T14:03:39;25.90;67.40
12166;DHT22;6146;48.128;11.476;2023-06-10T14:06:05;25.70;67.70
12166;DHT22;6146;48.128;11.476;2023-06-10T14:08:31;25.70;68.20
12166;DHT22;6146;48.128;11.476;2023-06-10T14:10:56;25.40;67.50
12166;DHT22;6146;48.128;11.476;2023-06-10T14:13:22;25.20;67.80
12166;DHT22;6146;48.128;11.476;2023-06-10T14:15:47;25.20;68.00
12166;DHT22;6146;48.128;11.476;2023-06-10T14:18:13;25.40;67.40
12166;DHT22;6146;48.128;11.476;2023-06-10T14:20:38;25.40;67.10
12166;DHT22;6146;48.128;11.476;2023-06-10T14:23:04;25.30;67.40
12166;DHT22;6146;48.128;11.476;2023-06-10T14:25:30;25.60;67.30
12166;DHT22;6146;48.128;11.476;2023-06-10T14:27:55;25.70;66.60
12166;DHT22;6146;48.128;11.476;2023-06-10T14:30:21;26.00;65.60
12166;DHT22;6146;48.128;11.476;2023-06-10T14:32:47;26.20;64.30
12166;DHT22;6146;48.128;11.476;2023-06-10T14:35:12;26.00;64.50
12166;DHT22;6146;48.128;11.476;2023-06-10T14:37:38;25.90;64.10
12166;DHT22;6146;48.128;11.476;2023-06-10T14:40:04;25.70;64.60
12166;DHT22;6146;48.128;11.476;2023-06-10T14:42:30;25.80;65.10
12166;DHT22;6146;48.128;11.476;2023-06-10T14:44:57;25.80;65.80
12166;DHT22;6146;48.128;11.476;2023-06-10T14:47:23;25.70;65.50
12166;DHT22;6146;48.128;11.476;2023-06-10T14:49:49;25.70;65.90
12166;DHT22;6146;48.128;11.476;2023-06-10T14:52:15;25.80;67.30
12166;DHT22;6146;48.128;11.476;2023-06-10T14:54:41;25.90;65.70
12166;DHT22;6146;48.128;11.476;2023-06-10T14:57:06;25.90;65.70
12166;DHT22;6146;48.128;11.476;2023-06-10T14:59:33;25.70;63.30
12166;DHT22;6146;48.128;11.476;2023-06-10T15:01:58;25.30;64.30
12166;DHT22;6146;48.128;11.476;2023-06-10T15:04:26;25.10;64.50
12166;DHT22;6146;48.128;11.476;2023-06-10T15:06:52;24.80;65.80
12166;DHT22;6146;48.128;11.476;2023-06-10T15:09:17;24.70;66.70
12166;DHT22;6146;48.128;11.476;2023-06-10T15:11:43;24.60;66.60
12166;DHT22;6146;48.128;11.476;2023-06-10T15:14:09;24.90;66.60
12166;DHT22;6146;48.128;11.476;2023-06-10T15:16:34;25.10;65.40
12166;DHT22;6146;48.128;11.476;2023-06-10T15:19:00;25.50;65.80
12166;DHT22;6146;48.128;11.476;2023-06-10T15:21:25;25.80;64.70
12166;DHT22;6146;48.128;11.476;2023-06-10T15:23:51;25.80;62.50
12166;DHT22;6146;48.128;11.476;2023-06-10T15:26:17;25.90;62.90
12166;DHT22;6146;48.128;11.476;2023-06-10T15:28:42;26.10;64.50
12166;DHT22;6146;48.128;11.476;2023-06-10T15:31:08;26.20;64.20
12166;DHT22;6146;48.128;11.476;2023-06-10T15:33:33;26.30;62.50
12166;DHT22;6146;48.128;11.476;2023-06-10T15:35:59;26.20;63.00
12166;DHT22;6146;48.128;11.476;2023-06-10T15:38:25;26.20;65.00
12166;DHT22;6146;48.128;11.476;2023-06-10T15:40:50;26.00;67.30
12166;DHT22;6146;48.128;11.476;2023-06-10T15:43:16;26.00;66.40
12166;DHT22;6146;48.128;11.476;2023-06-10T15:45:41;25.90;67.20